sensor_id;sensor_type;location;lat;lon;timestamp;P1;durP1;ratioP1;P2;durP2;ratioP2
12441;SDS011;6285;48.804;9.220;2022-09-21T00:01:25;9.77;;;7.20;;
12441;SDS011;6285;48.804;9.220;2022-09-21T00:03:52;10.55;;;7.15;;
12441;SDS011;6285;48.804;9.220;2022-09-21T00:06:21;10.18;;;7.40;;
12441;SDS011;6285;48.804;9.220;2022-09-21T00:08:49;12.50;;;7.13;;
12441;SDS011;6285;48.804;9.220;2022-09-21T00:11:17;10.70;;;7.32;;
12441;SDS011;6285;48.804;9.220;2022-09-21T00:13:44;10.25;;;6.82;;
12441;SDS011;6285;48.804;9.220;2022-09-21T00:16:12;9.27;;;7.35;;
12441;SDS011;6285;48.804;9.220;2022-09-21T00:18:40;9.98;;;6.35;;
12441;SDS011;6285;48.804;9.220;2022-09-21T00:21:07;12.02;;;6.95;;
12441;SDS011;6285;48.804;9.220;2022-09-21T00:23:38;8.65;;;6.72;;
12441;SDS011;6285;48.804;9.220;2022-09-21T00:26:05;7.60;;;6.13;;
12441;SDS011;6285;48.804;9.220;2022-09-21T00:28:33;8.23;;;5.53;;
12441;SDS011;6285;48.804;9.220;2022-09-21T00:31:00;8.75;;;6.15;;
12441;SDS011;6285;48.804;9.220;2022-09-21T00:33:28;8.27;;;6.35;;
12441;SDS011;6285;48.804;9.220;2022-09-21T00:36:00;9.82;;;6.88;;
12441;SDS011;6285;48.804;9.220;2022-09-21T00:38:27;11.80;;;6.70;;
12441;SDS011;6285;48.804;9.220;2022-09-21T00:40:55;10.40;;;6.05;;
12441;SDS011;6285;48.804;9.220;2022-09-21T00:43:23;9.88;;;6.47;;
12441;SDS011;6285;48.804;9.220;2022-09-21T00:45:50;10.63;;;6.43;;
12441;SDS011;6285;48.804;9.220;2022-09-21T00:48:22;7.78;;;6.03;;
12441;SDS011;6285;48.804;9.220;2022-09-21T00:50:51;9.02;;;6.13;;
12441;SDS011;6285;48.804;9.220;2022-09-21T00:53:20;8.50;;;5.95;;
12441;SDS011;6285;48.804;9.220;2022-09-21T00:55:48;9.15;;;6.30;;
12441;SDS011;6285;48.804;9.220;2022-09-21T00:58:21;9.95;;;6.18;;
12441;SDS011;6285;48.804;9.220;2022-09-21T01:00:51;8.00;;;6.20;;
12441;SDS011;6285;48.804;9.220;2022-09-21T01:03:18;8.52;;;5.90;;
12441;SDS011;6285;48.804;9.220;2022-09-21T01:05:45;11.50;;;6.28;;
12441;SDS011;6285;48.804;9.220;2022-09-21T01:08:13;8.43;;;6.45;;
12441;SDS011;6285;48.804;9.220;2022-09-21T01:10:45;7.80;;;5.63;;
12441;SDS011;6285;48.804;9.220;2022-09-21T01:13:17;7.80;;;6.10;;
12441;SDS011;6285;48.804;9.220;2022-09-21T01:15:51;7.55;;;5.90;;
12441;SDS011;6285;48.804;9.220;2022-09-21T01:18:22;7.45;;;5.85;;
12441;SDS011;6285;48.804;9.220;2022-09-21T01:20:59;9.52;;;6.10;;
12441;SDS011;6285;48.804;9.220;2022-09-21T01:23:34;10.77;;;6.60;;
12441;SDS011;6285;48.804;9.220;2022-09-21T01:26:08;10.30;;;6.22;;
12441;SDS011;6285;48.804;9.220;2022-09-21T01:31:29;8.13;;;5.90;;
12441;SDS011;6285;48.804;9.220;2022-09-21T01:34:01;9.30;;;6.25;;
12441;SDS011;6285;48.804;9.220;2022-09-21T01:36:34;11.68;;;6.10;;
12441;SDS011;6285;48.804;9.220;2022-09-21T01:39:04;11.43;;;5.68;;
12441;SDS011;6285;48.804;9.220;2022-09-21T01:41:32;10.05;;;5.72;;
12441;SDS011;6285;48.804;9.220;2022-09-21T01:44:02;8.15;;;5.57;;
12441;SDS011;6285;48.804;9.220;2022-09-21T01:46:33;8.35;;;6.22;;
12441;SDS011;6285;48.804;9.220;2022-09-21T01:49:02;6.80;;;5.80;;
12441;SDS011;6285;48.804;9.220;2022-09-21T01:51:32;7.97;;;5.53;;
12441;SDS011;6285;48.804;9.220;2022-09-21T01:54:01;8.43;;;5.80;;
12441;SDS011;6285;48.804;9.220;2022-09-21T01:56:34;8.75;;;6.25;;
12441;SDS011;6285;48.804;9.220;2022-09-21T01:59:03;8.23;;;5.53;;
12441;SDS011;6285;48.804;9.220;2022-09-21T02:01:36;8.65;;;5.85;;
12441;SDS011;6285;48.804;9.220;2022-09-21T02:04:08;10.25;;;5.88;;
12441;SDS011;6285;48.804;9.220;2022-09-21T02:06:35;7.10;;;5.53;;
12441;SDS011;6285;48.804;9.220;2022-09-21T02:09:04;9.35;;;5.28;;
12441;SDS011;6285;48.804;9.220;2022-09-21T02:11:31;7.03;;;5.35;;
12441;SDS011;6285;48.804;9.220;2022-09-21T02:13:58;9.48;;;5.82;;
12441;SDS011;6285;48.804;9.220;2022-09-21T02:16:30;7.00;;;5.50;;
12441;SDS011;6285;48.804;9.220;2022-09-21T02:19:04;7.40;;;5.53;;
12441;SDS011;6285;48.804;9.220;2022-09-21T02:21:37;8.60;;;6.32;;
12441;SDS011;6285;48.804;9.220;2022-09-21T02:24:07;8.00;;;6.25;;
12441;SDS011;6285;48.804;9.220;2022-09-21T02:26:39;6.93;;;5.93;;
12441;SDS011;6285;48.804;9.220;2022-09-21T02:29:11;6.13;;;5.18;;
12441;SDS011;6285;48.804;9.220;2022-09-21T02:31:42;10.07;;;5.78;;
12441;SDS011;6285;48.804;9.220;2022-09-21T02:34:14;6.95;;;5.80;;
12441;SDS011;6285;48.804;9.220;2022-09-21T02:36:43;7.72;;;5.30;;
12441;SDS011;6285;48.804;9.220;2022-09-21T02:39:14;6.25;;;5.20;;
12441;SDS011;6285;48.804;9.220;2022-09-21T02:41:45;6.95;;;5.63;;
12441;SDS011;6285;48.804;9.220;2022-09-21T02:44:16;6.53;;;5.20;;
12441;SDS011;6285;48.804;9.220;2022-09-21T02:46:45;8.38;;;5.82;;
12441;SDS011;6285;48.804;9.220;2022-09-21T02:49:20;7.95;;;5.53;;
12441;SDS011;6285;48.804;9.220;2022-09-21T02:51:48;6.10;;;5.13;;
12441;SDS011;6285;48.804;9.220;2022-09-21T02:54:16;8.98;;;5.30;;
12441;SDS011;6285;48.804;9.220;2022-09-21T02:56:45;7.55;;;5.63;;
12441;SDS011;6285;48.804;9.220;2022-09-21T02:59:15;8.07;;;5.60;;
12441;SDS011;6285;48.804;9.220;2022-09-21T03:01:42;6.72;;;5.70;;
12441;SDS011;6285;48.804;9.220;2022-09-21T03:04:10;7.05;;;5.45;;
12441;SDS011;6285;48.804;9.220;2022-09-21T03:06:38;11.02;;;7.25;;
12441;SDS011;6285;48.804;9.220;2022-09-21T03:09:05;9.43;;;6.45;;
12441;SDS011;6285;48.804;9.220;2022-09-21T03:11:33;11.15;;;6.75;;
12441;SDS011;6285;48.804;9.220;2022-09-21T03:14:01;7.03;;;6.10;;
12441;SDS011;6285;48.804;9.220;2022-09-21T03:16:29;9.85;;;6.68;;
12441;SDS011;6285;48.804;9.220;2022-09-21T03:18:56;8.98;;;6.25;;
12441;SDS011;6285;48.804;9.220;2022-09-21T03:21:23;12.02;;;7.25;;
12441;SDS011;6285;48.804;9.220;2022-09-21T03:23:51;9.52;;;7.03;;
12441;SDS011;6285;48.804;9.220;2022-09-21T03:26:19;11.23;;;7.43;;
12441;SDS011;6285;48.804;9.220;2022-09-21T03:28:46;11.63;;;7.30;;
12441;SDS011;6285;48.804;9.220;2022-09-21T03:31:13;10.65;;;7.38;;
12441;SDS011;6285;48.804;9.220;2022-09-21T03:33:40;14.48;;;7.90;;
12441;SDS011;6285;48.804;9.220;2022-09-21T03:36:07;15.07;;;8.40;;
12441;SDS011;6285;48.804;9.220;2022-09-21T03:38:35;11.02;;;8.55;;
12441;SDS011;6285;48.804;9.220;2022-09-21T03:41:04;13.73;;;8.50;;
12441;SDS011;6285;48.804;9.220;2022-09-21T03:43:31;11.38;;;8.05;;
12441;SDS011;6285;48.804;9.220;2022-09-21T03:45:58;12.10;;;8.43;;
12441;SDS011;6285;48.804;9.220;2022-09-21T03:48:25;11.90;;;7.68;;
12441;SDS011;6285;48.804;9.220;2022-09-21T03:50:52;12.70;;;8.38;;
12441;SDS011;6285;48.804;9.220;2022-09-21T03:53:19;13.20;;;8.13;;
12441;SDS011;6285;48.804;9.220;2022-09-21T03:55:46;13.15;;;8.80;;
12441;SDS011;6285;48.804;9.220;2022-09-21T03:58:14;13.75;;;8.38;;
12441;SDS011;6285;48.804;9.220;2022-09-21T04:00:41;12.20;;;9.23;;
12441;SDS011;6285;48.804;9.220;2022-09-21T04:03:08;13.10;;;9.05;;
12441;SDS011;6285;48.804;9.220;2022-09-21T04:05:37;12.68;;;9.45;;
12441;SDS011;6285;48.804;9.220;2022-09-21T04:08:04;13.80;;;9.45;;
12441;SDS011;6285;48.804;9.220;2022-09-21T04:10:32;12.27;;;8.38;;
12441;SDS011;6285;48.804;9.220;2022-09-21T04:12:59;8.82;;;6.68;;
12441;SDS011;6285;48.804;9.220;2022-09-21T04:15:28;8.60;;;6.70;;
12441;SDS011;6285;48.804;9.220;2022-09-21T04:17:56;7.93;;;6.57;;
12441;SDS011;6285;48.804;9.220;2022-09-21T04:20:23;7.63;;;6.45;;
12441;SDS011;6285;48.804;9.220;2022-09-21T04:22:50;8.00;;;6.35;;
12441;SDS011;6285;48.804;9.220;2022-09-21T04:25:17;8.27;;;5.85;;
12441;SDS011;6285;48.804;9.220;2022-09-21T04:27:44;9.50;;;6.15;;
12441;SDS011;6285;48.804;9.220;2022-09-21T04:30:12;8.90;;;5.97;;
12441;SDS011;6285;48.804;9.220;2022-09-21T04:32:41;10.85;;;5.70;;
12441;SDS011;6285;48.804;9.220;2022-09-21T04:35:08;9.48;;;5.85;;
12441;SDS011;6285;48.804;9.220;2022-09-21T04:37:35;10.20;;;6.60;;
12441;SDS011;6285;48.804;9.220;2022-09-21T04:40:02;11.20;;;6.18;;
12441;SDS011;6285;48.804;9.220;2022-09-21T04:42:30;10.13;;;6.18;;
12441;SDS011;6285;48.804;9.220;2022-09-21T04:44:57;7.43;;;6.05;;
12441;SDS011;6285;48.804;9.220;2022-09-21T04:47:24;8.10;;;6.03;;
12441;SDS011;6285;48.804;9.220;2022-09-21T04:49:52;9.88;;;6.47;;
12441;SDS011;6285;48.804;9.220;2022-09-21T04:52:19;10.52;;;6.32;;
12441;SDS011;6285;48.804;9.220;2022-09-21T04:54:46;8.10;;;5.93;;
12441;SDS011;6285;48.804;9.220;2022-09-21T04:57:14;8.00;;;5.90;;
12441;SDS011;6285;48.804;9.220;2022-09-21T04:59:41;8.13;;;6.07;;
12441;SDS011;6285;48.804;9.220;2022-09-21T05:02:08;10.00;;;6.25;;
12441;SDS011;6285;48.804;9.220;2022-09-21T05:04:36;10.23;;;6.57;;
12441;SDS011;6285;48.804;9.220;2022-09-21T05:07:04;9.40;;;6.18;;
12441;SDS011;6285;48.804;9.220;2022-09-21T05:09:31;9.52;;;6.53;;
12441;SDS011;6285;48.804;9.220;2022-09-21T05:12:16;11.63;;;7.05;;
12441;SDS011;6285;48.804;9.220;2022-09-21T05:14:43;13.90;;;7.28;;
12441;SDS011;6285;48.804;9.220;2022-09-21T05:17:11;11.18;;;7.57;;
12441;SDS011;6285;48.804;9.220;2022-09-21T05:19:38;11.88;;;7.40;;
12441;SDS011;6285;48.804;9.220;2022-09-21T05:22:07;12.32;;;8.90;;
12441;SDS011;6285;48.804;9.220;2022-09-21T05:24:34;14.63;;;8.73;;
12441;SDS011;6285;48.804;9.220;2022-09-21T05:27:01;12.10;;;8.25;;
12441;SDS011;6285;48.804;9.220;2022-09-21T05:29:28;13.88;;;9.13;;
12441;SDS011;6285;48.804;9.220;2022-09-21T05:31:56;14.48;;;9.60;;
12441;SDS011;6285;48.804;9.220;2022-09-21T05:34:30;13.73;;;9.23;;
12441;SDS011;6285;48.804;9.220;2022-09-21T05:37:00;14.60;;;9.40;;
12441;SDS011;6285;48.804;9.220;2022-09-21T05:39:30;14.95;;;8.18;;
12441;SDS011;6285;48.804;9.220;2022-09-21T05:41:57;16.80;;;9.88;;
12441;SDS011;6285;48.804;9.220;2022-09-21T05:44:24;20.08;;;10.15;;
12441;SDS011;6285;48.804;9.220;2022-09-21T05:46:53;14.05;;;9.38;;
12441;SDS011;6285;48.804;9.220;2022-09-21T05:49:27;17.77;;;9.68;;
12441;SDS011;6285;48.804;9.220;2022-09-21T05:51:57;15.93;;;9.38;;
12441;SDS011;6285;48.804;9.220;2022-09-21T05:54:31;14.43;;;9.48;;
12441;SDS011;6285;48.804;9.220;2022-09-21T05:57:07;17.92;;;9.40;;
12441;SDS011;6285;48.804;9.220;2022-09-21T05:59:47;14.30;;;9.20;;
12441;SDS011;6285;48.804;9.220;2022-09-21T06:02:18;13.27;;;9.20;;
12441;SDS011;6285;48.804;9.220;2022-09-21T06:04:46;15.50;;;9.63;;
12441;SDS011;6285;48.804;9.220;2022-09-21T06:07:14;14.43;;;9.77;;
12441;SDS011;6285;48.804;9.220;2022-09-21T06:09:42;12.57;;;8.70;;
12441;SDS011;6285;48.804;9.220;2022-09-21T06:12:09;15.77;;;9.45;;
12441;SDS011;6285;48.804;9.220;2022-09-21T06:14:36;13.55;;;9.05;;
12441;SDS011;6285;48.804;9.220;2022-09-21T06:17:03;17.98;;;9.43;;
12441;SDS011;6285;48.804;9.220;2022-09-21T06:19:30;11.68;;;8.50;;
12441;SDS011;6285;48.804;9.220;2022-09-21T06:21:57;19.58;;;8.95;;
12441;SDS011;6285;48.804;9.220;2022-09-21T06:24:24;16.67;;;9.13;;
12441;SDS011;6285;48.804;9.220;2022-09-21T06:26:53;11.75;;;9.15;;
12441;SDS011;6285;48.804;9.220;2022-09-21T06:29:20;15.73;;;9.05;;
12441;SDS011;6285;48.804;9.220;2022-09-21T06:34:51;14.88;;;8.02;;
12441;SDS011;6285;48.804;9.220;2022-09-21T06:37:18;11.38;;;8.77;;
12441;SDS011;6285;48.804;9.220;2022-09-21T06:39:45;12.15;;;8.70;;
12441;SDS011;6285;48.804;9.220;2022-09-21T06:42:12;12.80;;;8.07;;
12441;SDS011;6285;48.804;9.220;2022-09-21T06:44:39;11.57;;;8.05;;
12441;SDS011;6285;48.804;9.220;2022-09-21T06:47:06;10.43;;;8.27;;
12441;SDS011;6285;48.804;9.220;2022-09-21T06:49:33;12.88;;;8.15;;
12441;SDS011;6285;48.804;9.220;2022-09-21T06:52:03;9.65;;;7.55;;
12441;SDS011;6285;48.804;9.220;2022-09-21T06:54:30;10.57;;;7.55;;
12441;SDS011;6285;48.804;9.220;2022-09-21T06:56:57;9.40;;;6.47;;
12441;SDS011;6285;48.804;9.220;2022-09-21T06:59:24;8.30;;;6.60;;
12441;SDS011;6285;48.804;9.220;2022-09-21T07:01:51;9.60;;;6.95;;
12441;SDS011;6285;48.804;9.220;2022-09-21T07:04:22;7.35;;;6.50;;
12441;SDS011;6285;48.804;9.220;2022-09-21T07:06:49;7.18;;;6.07;;
12441;SDS011;6285;48.804;9.220;2022-09-21T07:09:17;11.93;;;6.95;;
12441;SDS011;6285;48.804;9.220;2022-09-21T07:11:44;7.50;;;6.72;;
12441;SDS011;6285;48.804;9.220;2022-09-21T07:14:11;8.25;;;6.03;;
12441;SDS011;6285;48.804;9.220;2022-09-21T07:16:39;10.18;;;6.70;;
12441;SDS011;6285;48.804;9.220;2022-09-21T07:19:07;14.52;;;7.18;;
12441;SDS011;6285;48.804;9.220;2022-09-21T07:21:34;10.98;;;7.47;;
12441;SDS011;6285;48.804;9.220;2022-09-21T07:24:01;12.63;;;7.97;;
12441;SDS011;6285;48.804;9.220;2022-09-21T07:26:29;12.07;;;7.60;;
12441;SDS011;6285;48.804;9.220;2022-09-21T07:28:57;9.98;;;7.63;;
12441;SDS011;6285;48.804;9.220;2022-09-21T07:31:24;10.63;;;7.38;;
12441;SDS011;6285;48.804;9.220;2022-09-21T07:33:54;11.15;;;7.20;;
12441;SDS011;6285;48.804;9.220;2022-09-21T07:36:21;9.68;;;6.72;;
12441;SDS011;6285;48.804;9.220;2022-09-21T07:38:48;12.98;;;7.28;;
12441;SDS011;6285;48.804;9.220;2022-09-21T07:41:15;12.63;;;6.45;;
12441;SDS011;6285;48.804;9.220;2022-09-21T07:43:44;9.25;;;6.65;;
12441;SDS011;6285;48.804;9.220;2022-09-21T07:46:11;8.48;;;6.55;;
12441;SDS011;6285;48.804;9.220;2022-09-21T07:48:40;12.63;;;7.70;;
12441;SDS011;6285;48.804;9.220;2022-09-21T07:51:07;9.43;;;6.20;;
12441;SDS011;6285;48.804;9.220;2022-09-21T07:53:35;8.52;;;6.75;;
12441;SDS011;6285;48.804;9.220;2022-09-21T07:56:03;7.55;;;5.80;;
12441;SDS011;6285;48.804;9.220;2022-09-21T07:58:30;8.73;;;6.05;;
12441;SDS011;6285;48.804;9.220;2022-09-21T08:01:17;6.90;;;5.43;;
12441;SDS011;6285;48.804;9.220;2022-09-21T08:03:47;10.90;;;6.10;;
12441;SDS011;6285;48.804;9.220;2022-09-21T08:06:14;10.50;;;5.80;;
12441;SDS011;6285;48.804;9.220;2022-09-21T08:08:41;11.13;;;5.60;;
12441;SDS011;6285;48.804;9.220;2022-09-21T08:11:08;7.15;;;5.68;;
12441;SDS011;6285;48.804;9.220;2022-09-21T08:13:36;11.40;;;5.95;;
12441;SDS011;6285;48.804;9.220;2022-09-21T08:16:03;8.15;;;5.40;;
12441;SDS011;6285;48.804;9.220;2022-09-21T08:18:34;9.20;;;5.72;;
12441;SDS011;6285;48.804;9.220;2022-09-21T08:21:02;7.40;;;5.20;;
12441;SDS011;6285;48.804;9.220;2022-09-21T08:23:29;9.07;;;5.47;;
12441;SDS011;6285;48.804;9.220;2022-09-21T08:25:59;9.13;;;5.13;;
12441;SDS011;6285;48.804;9.220;2022-09-21T08:28:26;8.55;;;5.38;;
12441;SDS011;6285;48.804;9.220;2022-09-21T08:30:57;8.70;;;5.70;;
12441;SDS011;6285;48.804;9.220;2022-09-21T08:33:24;8.45;;;5.65;;
12441;SDS011;6285;48.804;9.220;2022-09-21T08:35:53;10.02;;;5.25;;
12441;SDS011;6285;48.804;9.220;2022-09-21T08:38:20;10.27;;;5.00;;
12441;SDS011;6285;48.804;9.220;2022-09-21T08:40:47;8.80;;;4.93;;
12441;SDS011;6285;48.804;9.220;2022-09-21T08:43:17;8.50;;;5.38;;
12441;SDS011;6285;48.804;9.220;2022-09-21T08:45:44;6.35;;;4.22;;
12441;SDS011;6285;48.804;9.220;2022-09-21T08:48:13;7.38;;;4.72;;
12441;SDS011;6285;48.804;9.220;2022-09-21T08:50:43;5.80;;;4.78;;
12441;SDS011;6285;48.804;9.220;2022-09-21T08:53:14;5.53;;;2.15;;
12441;SDS011;6285;48.804;9.220;2022-09-21T08:55:41;4.18;;;2.00;;
12441;SDS011;6285;48.804;9.220;2022-09-21T08:58:12;4.10;;;2.03;;
12441;SDS011;6285;48.804;9.220;2022-09-21T09:00:41;5.13;;;2.80;;
12441;SDS011;6285;48.804;9.220;2022-09-21T09:03:12;4.53;;;2.45;;
12441;SDS011;6285;48.804;9.220;2022-09-21T09:05:43;3.58;;;2.25;;
12441;SDS011;6285;48.804;9.220;2022-09-21T09:08:27;3.17;;;1.60;;
12441;SDS011;6285;48.804;9.220;2022-09-21T09:11:04;4.32;;;1.48;;
12441;SDS011;6285;48.804;9.220;2022-09-21T09:13:48;2.33;;;1.23;;
12441;SDS011;6285;48.804;9.220;2022-09-21T09:16:21;2.90;;;1.70;;
12441;SDS011;6285;48.804;9.220;2022-09-21T09:18:51;3.28;;;1.23;;
12441;SDS011;6285;48.804;9.220;2022-09-21T09:21:20;2.17;;;1.55;;
12441;SDS011;6285;48.804;9.220;2022-09-21T09:23:50;3.95;;;1.52;;
12441;SDS011;6285;48.804;9.220;2022-09-21T09:26:20;3.55;;;1.67;;
12441;SDS011;6285;48.804;9.220;2022-09-21T09:28:50;2.17;;;1.15;;
12441;SDS011;6285;48.804;9.220;2022-09-21T09:31:18;2.97;;;1.10;;
12441;SDS011;6285;48.804;9.220;2022-09-21T09:33:47;1.70;;;1.25;;
12441;SDS011;6285;48.804;9.220;2022-09-21T09:36:17;2.13;;;1.10;;
12441;SDS011;6285;48.804;9.220;2022-09-21T09:38:46;2.00;;;1.20;;
12441;SDS011;6285;48.804;9.220;2022-09-21T09:41:28;4.93;;;1.30;;
12441;SDS011;6285;48.804;9.220;2022-09-21T09:44:26;2.25;;;1.10;;
12441;SDS011;6285;48.804;9.220;2022-09-21T09:46:57;3.08;;;0.98;;
12441;SDS011;6285;48.804;9.220;2022-09-21T09:49:29;1.10;;;0.82;;
12441;SDS011;6285;48.804;9.220;2022-09-21T09:52:01;2.08;;;1.00;;
12441;SDS011;6285;48.804;9.220;2022-09-21T09:54:32;1.55;;;0.80;;
12441;SDS011;6285;48.804;9.220;2022-09-21T09:57:00;1.85;;;0.75;;
12441;SDS011;6285;48.804;9.220;2022-09-21T09:59:28;2.45;;;1.00;;
12441;SDS011;6285;48.804;9.220;2022-09-21T10:02:00;2.38;;;1.10;;
12441;SDS011;6285;48.804;9.220;2022-09-21T10:04:28;1.98;;;0.93;;
12441;SDS011;6285;48.804;9.220;2022-09-21T10:06:55;2.17;;;0.77;;
12441;SDS011;6285;48.804;9.220;2022-09-21T10:09:24;1.92;;;1.10;;
12441;SDS011;6285;48.804;9.220;2022-09-21T10:11:54;1.58;;;0.80;;
12441;SDS011;6285;48.804;9.220;2022-09-21T10:14:22;2.10;;;0.82;;
12441;SDS011;6285;48.804;9.220;2022-09-21T10:16:51;2.30;;;0.90;;
12441;SDS011;6285;48.804;9.220;2022-09-21T10:19:19;1.98;;;0.90;;
12441;SDS011;6285;48.804;9.220;2022-09-21T10:21:47;2.10;;;0.80;;
12441;SDS011;6285;48.804;9.220;2022-09-21T10:24:19;1.20;;;0.70;;
12441;SDS011;6285;48.804;9.220;2022-09-21T10:26:49;3.35;;;0.90;;
12441;SDS011;6285;48.804;9.220;2022-09-21T10:29:27;1.77;;;1.02;;
12441;SDS011;6285;48.804;9.220;2022-09-21T10:31:55;2.55;;;1.00;;
12441;SDS011;6285;48.804;9.220;2022-09-21T10:34:22;1.98;;;0.95;;
12441;SDS011;6285;48.804;9.220;2022-09-21T10:36:51;1.65;;;0.68;;
12441;SDS011;6285;48.804;9.220;2022-09-21T10:39:24;1.60;;;0.70;;
12441;SDS011;6285;48.804;9.220;2022-09-21T10:42:01;1.88;;;1.33;;
12441;SDS011;6285;48.804;9.220;2022-09-21T10:44:34;2.47;;;1.33;;
12441;SDS011;6285;48.804;9.220;2022-09-21T10:47:11;2.95;;;1.58;;
12441;SDS011;6285;48.804;9.220;2022-09-21T10:49:41;3.88;;;1.60;;
12441;SDS011;6285;48.804;9.220;2022-09-21T10:52:09;2.65;;;1.48;;
12441;SDS011;6285;48.804;9.220;2022-09-21T10:54:37;2.33;;;1.95;;
12441;SDS011;6285;48.804;9.220;2022-09-21T10:57:06;3.90;;;2.13;;
12441;SDS011;6285;48.804;9.220;2022-09-21T10:59:35;3.88;;;1.60;;
12441;SDS011;6285;48.804;9.220;2022-09-21T11:02:21;10.65;;;2.28;;
12441;SDS011;6285;48.804;9.220;2022-09-21T11:04:49;2.00;;;1.40;;
12441;SDS011;6285;48.804;9.220;2022-09-21T11:07:21;5.45;;;1.50;;
12441;SDS011;6285;48.804;9.220;2022-09-21T11:09:52;4.45;;;1.50;;
12441;SDS011;6285;48.804;9.220;2022-09-21T11:15:11;2.65;;;1.25;;
12441;SDS011;6285;48.804;9.220;2022-09-21T11:17:44;3.17;;;1.40;;
12441;SDS011;6285;48.804;9.220;2022-09-21T11:20:19;4.57;;;1.40;;
12441;SDS011;6285;48.804;9.220;2022-09-21T11:22:49;3.95;;;1.33;;
12441;SDS011;6285;48.804;9.220;2022-09-21T11:25:25;2.58;;;1.15;;
12441;SDS011;6285;48.804;9.220;2022-09-21T11:27:56;1.17;;;1.08;;
12441;SDS011;6285;48.804;9.220;2022-09-21T11:30:27;1.88;;;1.40;;
12441;SDS011;6285;48.804;9.220;2022-09-21T11:33:07;1.50;;;1.15;;
12441;SDS011;6285;48.804;9.220;2022-09-21T11:35:47;3.00;;;0.75;;
12441;SDS011;6285;48.804;9.220;2022-09-21T11:38:19;3.13;;;1.10;;
12441;SDS011;6285;48.804;9.220;2022-09-21T11:40:58;2.08;;;0.98;;
12441;SDS011;6285;48.804;9.220;2022-09-21T11:43:32;3.35;;;1.30;;
12441;SDS011;6285;48.804;9.220;2022-09-21T11:46:06;2.72;;;1.23;;
12441;SDS011;6285;48.804;9.220;2022-09-21T11:48:42;1.92;;;0.98;;
12441;SDS011;6285;48.804;9.220;2022-09-21T11:51:18;1.83;;;0.98;;
12441;SDS011;6285;48.804;9.220;2022-09-21T11:53:52;2.35;;;0.80;;
12441;SDS011;6285;48.804;9.220;2022-09-21T11:56:26;1.52;;;0.80;;
12441;SDS011;6285;48.804;9.220;2022-09-21T11:58:58;2.85;;;1.00;;
12441;SDS011;6285;48.804;9.220;2022-09-21T12:01:41;2.72;;;0.80;;
12441;SDS011;6285;48.804;9.220;2022-09-21T12:04:30;1.23;;;0.75;;
12441;SDS011;6285;48.804;9.220;2022-09-21T12:07:12;1.67;;;0.70;;
12441;SDS011;6285;48.804;9.220;2022-09-21T12:09:48;2.03;;;0.65;;
12441;SDS011;6285;48.804;9.220;2022-09-21T12:12:18;2.88;;;1.00;;
12441;SDS011;6285;48.804;9.220;2022-09-21T12:14:48;0.93;;;0.60;;
12441;SDS011;6285;48.804;9.220;2022-09-21T12:17:20;1.15;;;0.80;;
12441;SDS011;6285;48.804;9.220;2022-09-21T12:19:51;3.85;;;0.80;;
12441;SDS011;6285;48.804;9.220;2022-09-21T12:22:25;1.95;;;0.95;;
12441;SDS011;6285;48.804;9.220;2022-09-21T12:24:53;1.40;;;0.80;;
12441;SDS011;6285;48.804;9.220;2022-09-21T12:27:24;4.90;;;1.05;;
12441;SDS011;6285;48.804;9.220;2022-09-21T12:29:52;0.93;;;0.65;;
12441;SDS011;6285;48.804;9.220;2022-09-21T12:32:27;1.27;;;1.05;;
12441;SDS011;6285;48.804;9.220;2022-09-21T12:35:05;1.30;;;0.65;;
12441;SDS011;6285;48.804;9.220;2022-09-21T12:37:36;1.05;;;0.75;;
12441;SDS011;6285;48.804;9.220;2022-09-21T12:40:05;1.85;;;0.60;;
12441;SDS011;6285;48.804;9.220;2022-09-21T12:42:35;1.58;;;0.65;;
12441;SDS011;6285;48.804;9.220;2022-09-21T12:47:41;1.45;;;0.80;;
12441;SDS011;6285;48.804;9.220;2022-09-21T12:50:13;1.20;;;0.77;;
12441;SDS011;6285;48.804;9.220;2022-09-21T12:52:43;1.13;;;0.70;;
12441;SDS011;6285;48.804;9.220;2022-09-21T12:55:14;1.15;;;0.50;;
12441;SDS011;6285;48.804;9.220;2022-09-21T12:57:49;1.50;;;0.75;;
12441;SDS011;6285;48.804;9.220;2022-09-21T13:00:18;4.25;;;0.90;;
12441;SDS011;6285;48.804;9.220;2022-09-21T13:02:49;1.20;;;0.60;;
12441;SDS011;6285;48.804;9.220;2022-09-21T13:05:20;0.90;;;0.75;;
12441;SDS011;6285;48.804;9.220;2022-09-21T13:08:00;2.03;;;0.60;;
12441;SDS011;6285;48.804;9.220;2022-09-21T13:13:24;2.53;;;0.63;;
12441;SDS011;6285;48.804;9.220;2022-09-21T13:15:52;1.63;;;0.60;;
12441;SDS011;6285;48.804;9.220;2022-09-21T13:18:24;3.47;;;0.68;;
12441;SDS011;6285;48.804;9.220;2022-09-21T13:20:52;1.70;;;0.77;;
12441;SDS011;6285;48.804;9.220;2022-09-21T13:23:21;2.30;;;0.98;;
12441;SDS011;6285;48.804;9.220;2022-09-21T13:25:57;3.38;;;0.90;;
12441;SDS011;6285;48.804;9.220;2022-09-21T13:28:38;1.17;;;0.70;;
12441;SDS011;6285;48.804;9.220;2022-09-21T13:34:06;1.55;;;0.77;;
12441;SDS011;6285;48.804;9.220;2022-09-21T13:36:42;1.60;;;0.80;;
12441;SDS011;6285;48.804;9.220;2022-09-21T13:39:13;0.98;;;0.55;;
12441;SDS011;6285;48.804;9.220;2022-09-21T13:41:41;1.63;;;0.80;;
12441;SDS011;6285;48.804;9.220;2022-09-21T13:44:17;1.65;;;0.73;;
12441;SDS011;6285;48.804;9.220;2022-09-21T13:46:49;2.33;;;0.70;;
12441;SDS011;6285;48.804;9.220;2022-09-21T13:49:18;0.75;;;0.52;;
12441;SDS011;6285;48.804;9.220;2022-09-21T13:51:50;1.17;;;0.70;;
12441;SDS011;6285;48.804;9.220;2022-09-21T13:54:18;1.40;;;0.73;;
12441;SDS011;6285;48.804;9.220;2022-09-21T13:56:46;1.50;;;0.77;;
12441;SDS011;6285;48.804;9.220;2022-09-21T13:59:23;1.40;;;0.60;;
12441;SDS011;6285;48.804;9.220;2022-09-21T14:01:51;1.40;;;0.82;;
12441;SDS011;6285;48.804;9.220;2022-09-21T14:04:21;0.82;;;0.60;;
12441;SDS011;6285;48.804;9.220;2022-09-21T14:06:50;0.57;;;0.57;;
12441;SDS011;6285;48.804;9.220;2022-09-21T14:09:20;1.77;;;0.68;;
12441;SDS011;6285;48.804;9.220;2022-09-21T14:11:51;0.68;;;0.63;;
12441;SDS011;6285;48.804;9.220;2022-09-21T14:14:22;1.15;;;0.68;;
12441;SDS011;6285;48.804;9.220;2022-09-21T14:16:56;0.90;;;0.60;;
12441;SDS011;6285;48.804;9.220;2022-09-21T14:22:35;1.30;;;0.68;;
12441;SDS011;6285;48.804;9.220;2022-09-21T14:27:58;2.80;;;0.77;;
12441;SDS011;6285;48.804;9.220;2022-09-21T14:30:30;0.77;;;0.60;;
12441;SDS011;6285;48.804;9.220;2022-09-21T14:33:07;0.73;;;0.60;;
12441;SDS011;6285;48.804;9.220;2022-09-21T14:35:37;1.98;;;0.70;;
12441;SDS011;6285;48.804;9.220;2022-09-21T14:38:13;1.52;;;0.68;;
12441;SDS011;6285;48.804;9.220;2022-09-21T14:40:45;3.63;;;0.93;;
12441;SDS011;6285;48.804;9.220;2022-09-21T14:43:14;2.03;;;0.73;;
12441;SDS011;6285;48.804;9.220;2022-09-21T14:45:48;1.27;;;0.60;;
12441;SDS011;6285;48.804;9.220;2022-09-21T14:48:20;0.63;;;0.50;;
12441;SDS011;6285;48.804;9.220;2022-09-21T14:50:55;1.25;;;0.65;;
12441;SDS011;6285;48.804;9.220;2022-09-21T14:53:36;1.23;;;0.60;;
12441;SDS011;6285;48.804;9.220;2022-09-21T14:56:14;1.30;;;0.68;;
12441;SDS011;6285;48.804;9.220;2022-09-21T14:59:11;1.30;;;0.60;;
12441;SDS011;6285;48.804;9.220;2022-09-21T15:01:51;0.90;;;0.60;;
12441;SDS011;6285;48.804;9.220;2022-09-21T15:04:27;1.35;;;0.70;;
12441;SDS011;6285;48.804;9.220;2022-09-21T15:07:01;1.42;;;0.70;;
12441;SDS011;6285;48.804;9.220;2022-09-21T15:09:55;1.35;;;0.80;;
12441;SDS011;6285;48.804;9.220;2022-09-21T15:12:45;3.33;;;0.70;;
12441;SDS011;6285;48.804;9.220;2022-09-21T15:15:22;1.00;;;0.73;;
12441;SDS011;6285;48.804;9.220;2022-09-21T15:17:54;0.60;;;0.60;;
12441;SDS011;6285;48.804;9.220;2022-09-21T15:20:23;1.33;;;0.70;;
12441;SDS011;6285;48.804;9.220;2022-09-21T15:22:52;1.80;;;0.70;;
12441;SDS011;6285;48.804;9.220;2022-09-21T15:25:21;0.95;;;0.80;;
12441;SDS011;6285;48.804;9.220;2022-09-21T15:27:48;1.00;;;0.70;;
12441;SDS011;6285;48.804;9.220;2022-09-21T15:30:19;2.00;;;0.77;;
12441;SDS011;6285;48.804;9.220;2022-09-21T15:32:47;1.23;;;0.90;;
12441;SDS011;6285;48.804;9.220;2022-09-21T15:35:18;1.13;;;0.70;;
12441;SDS011;6285;48.804;9.220;2022-09-21T15:37:45;0.75;;;0.60;;
12441;SDS011;6285;48.804;9.220;2022-09-21T15:40:17;3.55;;;2.38;;